sensor_id;sensor_type;location;lat;lon;timestamp;temperature;humidity
79026;DHT22;74892;44.760;37.726;2024-03-22T00:00:27;8.53;74.86
79026;DHT22;74892;44.760;37.726;2024-03-22T00:01:31;8.55;74.85
79026;DHT22;74892;44.760;37.726;2024-03-22T00:02:32;8.60;75.02
79026;DHT22;74892;44.760;37.726;2024-03-22T00:03:34;8.60;73.73
79026;DHT22;74892;44.760;37.726;2024-03-22T00:04:36;8.50;74.18
79026;DHT22;74892;44.760;37.726;2024-03-22T00:05:38;8.44;74.28
79026;DHT22;74892;44.760;37.726;2024-03-22T00:06:44;8.50;74.24
79026;DHT22;74892;44.760;37.726;2024-03-22T00:07:46;8.55;74.51
79026;DHT22;74892;44.760;37.726;2024-03-22T00:08:48;8.58;74.18
79026;DHT22;74892;44.760;37.726;2024-03-22T00:09:49;8.49;73.67
79026;DHT22;74892;44.760;37.726;2024-03-22T00:10:51;8.42;73.80
79026;DHT22;74892;44.760;37.726;2024-03-22T00:11:53;8.37;73.64
79026;DHT22;74892;44.760;37.726;2024-03-22T00:12:55;8.29;74.77
79026;DHT22;74892;44.760;37.726;2024-03-22T00:13:56;8.26;75.04
79026;DHT22;74892;44.760;37.726;2024-03-22T00:14:58;8.27;75.41
79026;DHT22;74892;44.760;37.726;2024-03-22T00:16:00;8.29;74.69
79026;DHT22;74892;44.760;37.726;2024-03-22T00:17:01;8.26;74.62
79026;DHT22;74892;44.760;37.726;2024-03-22T00:18:03;8.28;74.85
79026;DHT22;74892;44.760;37.726;2024-03-22T00:19:05;8.32;75.28
79026;DHT22;74892;44.760;37.726;2024-03-22T00:20:07;8.33;74.51
79026;DHT22;74892;44.760;37.726;2024-03-22T00:21:09;8.27;74.65
79026;DHT22;74892;44.760;37.726;2024-03-22T00:22:10;8.29;74.98
79026;DHT22;74892;44.760;37.726;2024-03-22T00:23:12;8.31;75.06
79026;DHT22;74892;44.760;37.726;2024-03-22T00:24:14;8.30;74.51
79026;DHT22;74892;44.760;37.726;2024-03-22T00:25:16;8.28;74.49
79026;DHT22;74892;44.760;37.726;2024-03-22T00:26:17;8.31;74.48
79026;DHT22;74892;44.760;37.726;2024-03-22T00:27:19;8.27;74.65
79026;DHT22;74892;44.760;37.726;2024-03-22T00:28:21;8.22;74.46
79026;DHT22;74892;44.760;37.726;2024-03-22T00:29:22;8.23;74.51
79026;DHT22;74892;44.760;37.726;2024-03-22T00:30:24;8.23;74.80
79026;DHT22;74892;44.760;37.726;2024-03-22T00:31:26;8.29;75.08
79026;DHT22;74892;44.760;37.726;2024-03-22T00:32:27;8.30;74.63
79026;DHT22;74892;44.760;37.726;2024-03-22T00:33:29;8.28;74.32
79026;DHT22;74892;44.760;37.726;2024-03-22T00:34:31;8.24;74.80
79026;DHT22;74892;44.760;37.726;2024-03-22T00:35:32;8.22;74.70
79026;DHT22;74892;44.760;37.726;2024-03-22T00:36:34;8.20;74.66
79026;DHT22;74892;44.760;37.726;2024-03-22T00:37:35;8.24;74.22
79026;DHT22;74892;44.760;37.726;2024-03-22T00:38:37;8.29;74.43
79026;DHT22;74892;44.760;37.726;2024-03-22T00:39:39;8.31;74.11
79026;DHT22;74892;44.760;37.726;2024-03-22T00:40:40;8.32;74.15
79026;DHT22;74892;44.760;37.726;2024-03-22T00:41:42;8.29;73.96
79026;DHT22;74892;44.760;37.726;2024-03-22T00:42:44;8.33;73.93
79026;DHT22;74892;44.760;37.726;2024-03-22T00:43:45;8.34;74.06
79026;DHT22;74892;44.760;37.726;2024-03-22T00:44:47;8.26;73.63
79026;DHT22;74892;44.760;37.726;2024-03-22T00:45:49;8.14;73.95
79026;DHT22;74892;44.760;37.726;2024-03-22T00:46:51;8.03;74.39
79026;DHT22;74892;44.760;37.726;2024-03-22T00:47:52;7.98;74.43
79026;DHT22;74892;44.760;37.726;2024-03-22T00:48:54;7.97;74.92
79026;DHT22;74892;44.760;37.726;2024-03-22T00:49:56;7.96;74.80
79026;DHT22;74892;44.760;37.726;2024-03-22T00:50:58;7.98;74.62
79026;DHT22;74892;44.760;37.726;2024-03-22T00:51:59;8.03;74.71
79026;DHT22;74892;44.760;37.726;2024-03-22T00:53:01;7.96;74.71
79026;DHT22;74892;44.760;37.726;2024-03-22T00:54:04;7.92;74.57
79026;DHT22;74892;44.760;37.726;2024-03-22T00:55:06;7.87;74.86
79026;DHT22;74892;44.760;37.726;2024-03-22T00:56:08;7.88;74.67
79026;DHT22;74892;44.760;37.726;2024-03-22T00:57:09;7.86;74.85
79026;DHT22;74892;44.760;37.726;2024-03-22T00:58:11;7.86;74.56
79026;DHT22;74892;44.760;37.726;2024-03-22T00:59:13;7.90;74.83
79026;DHT22;74892;44.760;37.726;2024-03-22T01:00:15;7.94;73.98
79026;DHT22;74892;44.760;37.726;2024-03-22T01:01:17;7.93;74.25
79026;DHT22;74892;44.760;37.726;2024-03-22T01:02:19;7.89;73.76
79026;DHT22;74892;44.760;37.726;2024-03-22T01:03:21;7.85;74.22
79026;DHT22;74892;44.760;37.726;2024-03-22T01:04:23;7.79;74.33
79026;DHT22;74892;44.760;37.726;2024-03-22T01:05:24;7.72;74.89
79026;DHT22;74892;44.760;37.726;2024-03-22T01:06:27;7.71;75.08
79026;DHT22;74892;44.760;37.726;2024-03-22T01:07:29;7.74;75.47
79026;DHT22;74892;44.760;37.726;2024-03-22T01:08:31;7.76;74.54
79026;DHT22;74892;44.760;37.726;2024-03-22T01:09:32;7.81;74.76
79026;DHT22;74892;44.760;37.726;2024-03-22T01:10:34;7.84;74.73
79026;DHT22;74892;44.760;37.726;2024-03-22T01:11:35;7.83;74.03
79026;DHT22;74892;44.760;37.726;2024-03-22T01:12:38;7.81;74.65
79026;DHT22;74892;44.760;37.726;2024-03-22T01:13:40;7.85;74.45
79026;DHT22;74892;44.760;37.726;2024-03-22T01:14:42;7.82;74.33
79026;DHT22;74892;44.760;37.726;2024-03-22T01:15:43;7.75;74.11
79026;DHT22;74892;44.760;37.726;2024-03-22T01:16:47;7.70;74.06
79026;DHT22;74892;44.760;37.726;2024-03-22T01:17:48;7.70;74.55
79026;DHT22;74892;44.760;37.726;2024-03-22T01:18:50;7.69;74.46
79026;DHT22;74892;44.760;37.726;2024-03-22T01:19:52;7.67;73.77
79026;DHT22;74892;44.760;37.726;2024-03-22T01:20:54;7.58;73.97
79026;DHT22;74892;44.760;37.726;2024-03-22T01:21:55;7.54;73.75
79026;DHT22;74892;44.760;37.726;2024-03-22T01:22:59;7.52;74.48
79026;DHT22;74892;44.760;37.726;2024-03-22T01:24:02;7.54;74.28
79026;DHT22;74892;44.760;37.726;2024-03-22T01:25:04;7.55;73.93
79026;DHT22;74892;44.760;37.726;2024-03-22T01:26:06;7.54;73.70
79026;DHT22;74892;44.760;37.726;2024-03-22T01:27:08;7.50;74.12
79026;DHT22;74892;44.760;37.726;2024-03-22T01:28:09;7.48;74.36
79026;DHT22;74892;44.760;37.726;2024-03-22T01:29:11;7.47;74.28
79026;DHT22;74892;44.760;37.726;2024-03-22T01:30:13;7.48;74.43
79026;DHT22;74892;44.760;37.726;2024-03-22T01:31:14;7.45;74.85
79026;DHT22;74892;44.760;37.726;2024-03-22T01:32:17;7.40;74.84
79026;DHT22;74892;44.760;37.726;2024-03-22T01:33:18;7.35;75.01
79026;DHT22;74892;44.760;37.726;2024-03-22T01:34:20;7.33;75.11
79026;DHT22;74892;44.760;37.726;2024-03-22T01:35:22;7.33;75.05
79026;DHT22;74892;44.760;37.726;2024-03-22T01:36:23;7.34;74.74
79026;DHT22;74892;44.760;37.726;2024-03-22T01:37:25;7.40;74.24
79026;DHT22;74892;44.760;37.726;2024-03-22T01:38:27;7.38;74.84
79026;DHT22;74892;44.760;37.726;2024-03-22T01:39:29;7.40;74.76
79026;DHT22;74892;44.760;37.726;2024-03-22T01:40:31;7.39;74.73
79026;DHT22;74892;44.760;37.726;2024-03-22T01:41:33;7.38;74.12
79026;DHT22;74892;44.760;37.726;2024-03-22T01:42:34;7.39;74.57
79026;DHT22;74892;44.760;37.726;2024-03-22T01:43:36;7.34;74.57
79026;DHT22;74892;44.760;37.726;2024-03-22T01:44:38;7.29;74.64
79026;DHT22;74892;44.760;37.726;2024-03-22T01:45:40;7.29;74.60
79026;DHT22;74892;44.760;37.726;2024-03-22T01:46:42;7.29;74.46
79026;DHT22;74892;44.760;37.726;2024-03-22T01:47:45;7.34;75.05
79026;DHT22;74892;44.760;37.726;2024-03-22T01:48:47;7.37;74.56
79026;DHT22;74892;44.760;37.726;2024-03-22T01:49:50;7.37;74.31
79026;DHT22;74892;44.760;37.726;2024-03-22T01:50:53;7.42;74.19
79026;DHT22;74892;44.760;37.726;2024-03-22T01:51:55;7.46;73.80
79026;DHT22;74892;44.760;37.726;2024-03-22T01:52:57;7.44;73.96
79026;DHT22;74892;44.760;37.726;2024-03-22T01:54:02;7.44;74.42
79026;DHT22;74892;44.760;37.726;2024-03-22T01:55:05;7.44;74.40
79026;DHT22;74892;44.760;37.726;2024-03-22T01:56:07;7.38;73.70
79026;DHT22;74892;44.760;37.726;2024-03-22T01:57:09;7.39;73.49
79026;DHT22;74892;44.760;37.726;2024-03-22T01:58:11;7.35;73.49
79026;DHT22;74892;44.760;37.726;2024-03-22T01:59:14;7.39;73.75
79026;DHT22;74892;44.760;37.726;2024-03-22T02:00:16;7.38;73.73
79026;DHT22;74892;44.760;37.726;2024-03-22T02:01:18;7.32;73.69
79026;DHT22;74892;44.760;37.726;2024-03-22T02:02:19;7.20;74.50
79026;DHT22;74892;44.760;37.726;2024-03-22T02:03:21;7.19;74.54
79026;DHT22;74892;44.760;37.726;2024-03-22T02:04:23;7.20;74.25
79026;DHT22;74892;44.760;37.726;2024-03-22T02:05:25;7.23;74.09
79026;DHT22;74892;44.760;37.726;2024-03-22T02:06:26;7.20;73.93
79026;DHT22;74892;44.760;37.726;2024-03-22T02:07:30;7.13;74.38
79026;DHT22;74892;44.760;37.726;2024-03-22T02:08:31;7.11;74.02
79026;DHT22;74892;44.760;37.726;2024-03-22T02:09:33;7.00;75.24
79026;DHT22;74892;44.760;37.726;2024-03-22T02:10:35;6.99;75.22
79026;DHT22;74892;44.760;37.726;2024-03-22T02:11:36;7.02;74.55
79026;DHT22;74892;44.760;37.726;2024-03-22T02:12:41;6.96;74.32
79026;DHT22;74892;44.760;37.726;2024-03-22T02:13:43;6.91;74.94
79026;DHT22;74892;44.760;37.726;2024-03-22T02:14:44;6.98;74.73
79026;DHT22;74892;44.760;37.726;2024-03-22T02:15:46;7.01;74.33
79026;DHT22;74892;44.760;37.726;2024-03-22T02:16:48;6.96;74.39
79026;DHT22;74892;44.760;37.726;2024-03-22T02:17:49;6.95;74.66
79026;DHT22;74892;44.760;37.726;2024-03-22T02:18:51;6.97;74.47
79026;DHT22;74892;44.760;37.726;2024-03-22T02:19:53;7.00;74.65
79026;DHT22;74892;44.760;37.726;2024-03-22T02:20:59;7.01;74.50
79026;DHT22;74892;44.760;37.726;2024-03-22T02:22:00;7.00;74.12
79026;DHT22;74892;44.760;37.726;2024-03-22T02:23:02;6.99;74.43
79026;DHT22;74892;44.760;37.726;2024-03-22T02:24:04;6.97;74.41
79026;DHT22;74892;44.760;37.726;2024-03-22T02:25:06;6.95;74.57
79026;DHT22;74892;44.760;37.726;2024-03-22T02:26:09;6.86;74.76
79026;DHT22;74892;44.760;37.726;2024-03-22T02:27:10;6.81;75.28
79026;DHT22;74892;44.760;37.726;2024-03-22T02:28:12;6.72;75.32
79026;DHT22;74892;44.760;37.726;2024-03-22T02:29:14;6.71;75.52
79026;DHT22;74892;44.760;37.726;2024-03-22T02:30:16;6.75;75.68
79026;DHT22;74892;44.760;37.726;2024-03-22T02:31:18;6.81;75.65
79026;DHT22;74892;44.760;37.726;2024-03-22T02:32:21;6.80;75.22
79026;DHT22;74892;44.760;37.726;2024-03-22T02:33:23;6.80;75.13
79026;DHT22;74892;44.760;37.726;2024-03-22T02:34:24;6.74;75.31
79026;DHT22;74892;44.760;37.726;2024-03-22T02:35:26;6.79;75.47
79026;DHT22;74892;44.760;37.726;2024-03-22T02:36:28;6.82;75.23
79026;DHT22;74892;44.760;37.726;2024-03-22T02:37:30;6.84;74.91
79026;DHT22;74892;44.760;37.726;2024-03-22T02:38:33;6.85;74.44
79026;DHT22;74892;44.760;37.726;2024-03-22T02:39:38;6.85;74.70
79026;DHT22;74892;44.760;37.726;2024-03-22T02:40:40;6.91;74.64
79026;DHT22;74892;44.760;37.726;2024-03-22T02:41:42;6.91;74.68
79026;DHT22;74892;44.760;37.726;2024-03-22T02:42:43;6.91;73.90
79026;DHT22;74892;44.760;37.726;2024-03-22T02:43:45;6.90;73.96
79026;DHT22;74892;44.760;37.726;2024-03-22T02:44:47;6.86;73.89
79026;DHT22;74892;44.760;37.726;2024-03-22T02:45:49;6.86;74.30
79026;DHT22;74892;44.760;37.726;2024-03-22T02:46:51;6.93;74.54
79026;DHT22;74892;44.760;37.726;2024-03-22T02:47:52;6.93;73.84
79026;DHT22;74892;44.760;37.726;2024-03-22T02:48:54;6.90;74.08
79026;DHT22;74892;44.760;37.726;2024-03-22T02:49:56;6.98;74.05
79026;DHT22;74892;44.760;37.726;2024-03-22T02:50:57;6.97;73.64
79026;DHT22;74892;44.760;37.726;2024-03-22T02:52:00;6.91;73.57
79026;DHT22;74892;44.760;37.726;2024-03-22T02:53:02;6.86;73.75
79026;DHT22;74892;44.760;37.726;2024-03-22T02:54:04;6.88;73.92
79026;DHT22;74892;44.760;37.726;2024-03-22T02:55:06;6.90;73.70
79026;DHT22;74892;44.760;37.726;2024-03-22T02:56:08;6.95;73.54
79026;DHT22;74892;44.760;37.726;2024-03-22T02:57:10;7.00;73.41
79026;DHT22;74892;44.760;37.726;2024-03-22T02:58:12;7.02;72.83
79026;DHT22;74892;44.760;37.726;2024-03-22T02:59:14;7.02;73.10
79026;DHT22;74892;44.760;37.726;2024-03-22T03:00:16;7.01;73.65
79026;DHT22;74892;44.760;37.726;2024-03-22T03:01:18;7.04;73.49
79026;DHT22;74892;44.760;37.726;2024-03-22T03:02:19;7.08;73.75
79026;DHT22;74892;44.760;37.726;2024-03-22T03:03:21;7.13;73.08
79026;DHT22;74892;44.760;37.726;2024-03-22T03:04:23;7.14;72.45
79026;DHT22;74892;44.760;37.726;2024-03-22T03:05:24;7.14;72.17
79026;DHT22;74892;44.760;37.726;2024-03-22T03:06:26;7.14;72.30
79026;DHT22;74892;44.760;37.726;2024-03-22T03:07:28;7.16;72.48
79026;DHT22;74892;44.760;37.726;2024-03-22T03:08:29;7.16;72.54
79026;DHT22;74892;44.760;37.726;2024-03-22T03:09:31;7.16;72.46
79026;DHT22;74892;44.760;37.726;2024-03-22T03:10:33;7.15;72.22
79026;DHT22;74892;44.760;37.726;2024-03-22T03:11:34;7.13;72.13
79026;DHT22;74892;44.760;37.726;2024-03-22T03:12:36;7.13;72.32
79026;DHT22;74892;44.760;37.726;2024-03-22T03:13:38;7.11;71.88
79026;DHT22;74892;44.760;37.726;2024-03-22T03:14:39;7.14;71.81
79026;DHT22;74892;44.760;37.726;2024-03-22T03:15:44;7.17;71.41
79026;DHT22;74892;44.760;37.726;2024-03-22T03:16:46;7.19;71.59
79026;DHT22;74892;44.760;37.726;2024-03-22T03:17:48;7.18;71.81
79026;DHT22;74892;44.760;37.726;2024-03-22T03:18:49;7.20;72.00
79026;DHT22;74892;44.760;37.726;2024-03-22T03:19:51;7.19;71.65
79026;DHT22;74892;44.760;37.726;2024-03-22T03:20:56;7.18;72.22
79026;DHT22;74892;44.760;37.726;2024-03-22T03:21:57;7.22;72.54
79026;DHT22;74892;44.760;37.726;2024-03-22T03:22:59;7.22;72.29
79026;DHT22;74892;44.760;37.726;2024-03-22T03:24:04;7.15;72.77
79026;DHT22;74892;44.760;37.726;2024-03-22T03:25:06;7.07;72.60
79026;DHT22;74892;44.760;37.726;2024-03-22T03:26:08;6.98;73.65
79026;DHT22;74892;44.760;37.726;2024-03-22T03:27:10;6.97;73.93
79026;DHT22;74892;44.760;37.726;2024-03-22T03:28:11;6.94;74.22
79026;DHT22;74892;44.760;37.726;2024-03-22T03:29:15;6.89;74.28
79026;DHT22;74892;44.760;37.726;2024-03-22T03:30:17;6.90;74.42
79026;DHT22;74892;44.760;37.726;2024-03-22T03:31:19;6.90;74.54
79026;DHT22;74892;44.760;37.726;2024-03-22T03:32:21;6.91;74.51
79026;DHT22;74892;44.760;37.726;2024-03-22T03:33:25;6.91;74.44
79026;DHT22;74892;44.760;37.726;2024-03-22T03:34:27;6.89;75.11
79026;DHT22;74892;44.760;37.726;2024-03-22T03:35:28;6.88;75.44
79026;DHT22;74892;44.760;37.726;2024-03-22T03:36:31;6.88;75.42
79026;DHT22;74892;44.760;37.726;2024-03-22T03:37:32;6.86;75.00
79026;DHT22;74892;44.760;37.726;2024-03-22T03:38:34;6.86;75.05
79026;DHT22;74892;44.760;37.726;2024-03-22T03:39:38;6.83;74.81
79026;DHT22;74892;44.760;37.726;2024-03-22T03:40:41;6.79;74.77
79026;DHT22;74892;44.760;37.726;2024-03-22T03:41:43;6.80;74.01
79026;DHT22;74892;44.760;37.726;2024-03-22T03:42:44;6.73;73.70
79026;DHT22;74892;44.760;37.726;2024-03-22T03:43:46;6.74;74.32
79026;DHT22;74892;44.760;37.726;2024-03-22T03:44:51;6.70;75.24
79026;DHT22;74892;44.760;37.726;2024-03-22T03:45:55;6.63;75.73
79026;DHT22;74892;44.760;37.726;2024-03-22T03:46:57;6.57;76.70
79026;DHT22;74892;44.760;37.726;2024-03-22T03:47:58;6.55;76.16
79026;DHT22;74892;44.760;37.726;2024-03-22T03:49:00;6.51;75.69
79026;DHT22;74892;44.760;37.726;2024-03-22T03:50:02;6.48;75.60
79026;DHT22;74892;44.760;37.726;2024-03-22T03:51:04;6.43;75.83
79026;DHT22;74892;44.760;37.726;2024-03-22T03:52:06;6.41;76.15
79026;DHT22;74892;44.760;37.726;2024-03-22T03:53:08;6.42;76.02
79026;DHT22;74892;44.760;37.726;2024-03-22T03:54:09;6.43;75.43
79026;DHT22;74892;44.760;37.726;2024-03-22T03:55:11;6.45;75.28
79026;DHT22;74892;44.760;37.726;2024-03-22T03:56:13;6.44;75.89
79026;DHT22;74892;44.760;37.726;2024-03-22T03:57:15;6.42;76.33
79026;DHT22;74892;44.760;37.726;2024-03-22T03:58:16;6.46;77.14
79026;DHT22;74892;44.760;37.726;2024-03-22T03:59:19;6.50;76.67
79026;DHT22;74892;44.760;37.726;2024-03-22T04:00:21;6.42;76.54
79026;DHT22;74892;44.760;37.726;2024-03-22T04:01:23;6.36;76.63
79026;DHT22;74892;44.760;37.726;2024-03-22T04:02:25;6.27;76.50
79026;DHT22;74892;44.760;37.726;2024-03-22T04:03:27;6.25;77.60
79026;DHT22;74892;44.760;37.726;2024-03-22T04:04:28;6.22;78.01
79026;DHT22;74892;44.760;37.726;2024-03-22T04:05:30;6.22;77.05
79026;DHT22;74892;44.760;37.726;2024-03-22T04:06:32;6.14;77.44
79026;DHT22;74892;44.760;37.726;2024-03-22T04:07:33;6.08;77.63
79026;DHT22;74892;44.760;37.726;2024-03-22T04:08:35;6.09;77.96
79026;DHT22;74892;44.760;37.726;2024-03-22T04:09:37;6.16;77.57
79026;DHT22;74892;44.760;37.726;2024-03-22T04:10:38;6.20;77.10
79026;DHT22;74892;44.760;37.726;2024-03-22T04:11:40;6.22;76.16
79026;DHT22;74892;44.760;37.726;2024-03-22T04:12:42;6.20;76.95
79026;DHT22;74892;44.760;37.726;2024-03-22T04:13:44;6.24;76.27
79026;DHT22;74892;44.760;37.726;2024-03-22T04:14:45;6.25;76.47
79026;DHT22;74892;44.760;37.726;2024-03-22T04:15:47;6.22;77.04
79026;DHT22;74892;44.760;37.726;2024-03-22T04:16:49;6.22;77.16
79026;DHT22;74892;44.760;37.726;2024-03-22T04:17:50;6.24;77.15
79026;DHT22;74892;44.760;37.726;2024-03-22T04:18:53;6.30;77.26
79026;DHT22;74892;44.760;37.726;2024-03-22T04:19:54;6.37;78.24
79026;DHT22;74892;44.760;37.726;2024-03-22T04:20:59;6.39;78.41
79026;DHT22;74892;44.760;37.726;2024-03-22T04:22:01;6.35;77.31
79026;DHT22;74892;44.760;37.726;2024-03-22T04:23:02;6.33;77.48
79026;DHT22;74892;44.760;37.726;2024-03-22T04:24:04;6.29;75.95
79026;DHT22;74892;44.760;37.726;2024-03-22T04:25:06;6.24;76.31
79026;DHT22;74892;44.760;37.726;2024-03-22T04:26:09;6.11;76.93
79026;DHT22;74892;44.760;37.726;2024-03-22T04:27:11;6.04;77.24
79026;DHT22;74892;44.760;37.726;2024-03-22T04:28:19;6.01;77.49
79026;DHT22;74892;44.760;37.726;2024-03-22T04:29:28;5.95;78.42
79026;DHT22;74892;44.760;37.726;2024-03-22T04:30:30;5.92;78.88
79026;DHT22;74892;44.760;37.726;2024-03-22T04:31:31;5.98;78.95
79026;DHT22;74892;44.760;37.726;2024-03-22T04:32:33;6.06;77.83
79026;DHT22;74892;44.760;37.726;2024-03-22T04:33:36;6.09;78.40
79026;DHT22;74892;44.760;37.726;2024-03-22T04:34:41;6.09;79.02
79026;DHT22;74892;44.760;37.726;2024-03-22T04:35:46;6.09;78.58
79026;DHT22;74892;44.760;37.726;2024-03-22T04:36:48;6.10;78.79
79026;DHT22;74892;44.760;37.726;2024-03-22T04:37:50;6.14;79.12
79026;DHT22;74892;44.760;37.726;2024-03-22T04:38:51;6.19;78.31
79026;DHT22;74892;44.760;37.726;2024-03-22T04:39:53;6.15;78.34
79026;DHT22;74892;44.760;37.726;2024-03-22T04:40:56;6.14;77.85
79026;DHT22;74892;44.760;37.726;2024-03-22T04:41:59;6.13;78.56
79026;DHT22;74892;44.760;37.726;2024-03-22T04:43:01;6.12;78.24
79026;DHT22;74892;44.760;37.726;2024-03-22T04:44:03;6.09;78.51
79026;DHT22;74892;44.760;37.726;2024-03-22T04:45:05;6.08;78.59
79026;DHT22;74892;44.760;37.726;2024-03-22T04:46:07;6.09;78.59
79026;DHT22;74892;44.760;37.726;2024-03-22T04:47:08;6.12;78.94
79026;DHT22;74892;44.760;37.726;2024-03-22T04:48:16;6.16;79.21
79026;DHT22;74892;44.760;37.726;2024-03-22T04:49:18;6.21;78.69
79026;DHT22;74892;44.760;37.726;2024-03-22T04:50:19;6.25;77.60
79026;DHT22;74892;44.760;37.726;2024-03-22T04:51:21;6.25;78.35
79026;DHT22;74892;44.760;37.726;2024-03-22T04:52:23;6.22;76.73
79026;DHT22;74892;44.760;37.726;2024-03-22T04:53:25;6.13;77.08
79026;DHT22;74892;44.760;37.726;2024-03-22T04:54:26;6.11;77.72
79026;DHT22;74892;44.760;37.726;2024-03-22T04:55:28;6.13;78.56
79026;DHT22;74892;44.760;37.726;2024-03-22T04:56:30;6.13;78.75
79026;DHT22;74892;44.760;37.726;2024-03-22T04:57:34;6.12;78.78
79026;DHT22;74892;44.760;37.726;2024-03-22T04:58:36;6.09;78.52
79026;DHT22;74892;44.760;37.726;2024-03-22T04:59:37;6.05;78.97
79026;DHT22;74892;44.760;37.726;2024-03-22T05:00:39;5.99;78.92
79026;DHT22;74892;44.760;37.726;2024-03-22T05:01:42;5.94;78.57
79026;DHT22;74892;44.760;37.726;2024-03-22T05:02:45;5.91;78.49
79026;DHT22;74892;44.760;37.726;2024-03-22T05:03:47;5.87;78.27
79026;DHT22;74892;44.760;37.726;2024-03-22T05:04:49;5.80;78.05
79026;DHT22;74892;44.760;37.726;2024-03-22T05:05:51;5.79;78.72
79026;DHT22;74892;44.760;37.726;2024-03-22T05:06:53;5.79;79.35
79026;DHT22;74892;44.760;37.726;2024-03-22T05:07:54;5.81;79.76
79026;DHT22;74892;44.760;37.726;2024-03-22T05:08:56;5.79;78.64
79026;DHT22;74892;44.760;37.726;2024-03-22T05:09:58;5.74;78.87
79026;DHT22;74892;44.760;37.726;2024-03-22T05:10:59;5.71;79.33
79026;DHT22;74892;44.760;37.726;2024-03-22T05:12:01;5.67;79.12
79026;DHT22;74892;44.760;37.726;2024-03-22T05:13:03;5.64;79.51
79026;DHT22;74892;44.760;37.726;2024-03-22T05:14:04;5.67;80.44
79026;DHT22;74892;44.760;37.726;2024-03-22T05:15:06;5.70;80.37
79026;DHT22;74892;44.760;37.726;2024-03-22T05:16:08;5.74;80.01
79026;DHT22;74892;44.760;37.726;2024-03-22T05:17:10;5.70;81.01
79026;DHT22;74892;44.760;37.726;2024-03-22T05:18:15;5.78;81.75
79026;DHT22;74892;44.760;37.726;2024-03-22T05:19:16;5.84;80.97
79026;DHT22;74892;44.760;37.726;2024-03-22T05:20:19;5.87;80.86
79026;DHT22;74892;44.760;37.726;2024-03-22T05:21:20;5.91;80.63
79026;DHT22;74892;44.760;37.726;2024-03-22T05:22:22;5.93;79.74
79026;DHT22;74892;44.760;37.726;2024-03-22T05:23:24;5.95;79.95
79026;DHT22;74892;44.760;37.726;2024-03-22T05:24:26;5.92;78.99
79026;DHT22;74892;44.760;37.726;2024-03-22T05:25:30;5.85;78.11
79026;DHT22;74892;44.760;37.726;2024-03-22T05:26:32;5.84;78.66
79026;DHT22;74892;44.760;37.726;2024-03-22T05:27:37;5.86;79.44
79026;DHT22;74892;44.760;37.726;2024-03-22T05:28:39;5.86;78.72
79026;DHT22;74892;44.760;37.726;2024-03-22T05:29:41;5.90;79.15
79026;DHT22;74892;44.760;37.726;2024-03-22T05:30:43;5.89;78.92
79026;DHT22;74892;44.760;37.726;2024-03-22T05:31:49;5.92;78.71
79026;DHT22;74892;44.760;37.726;2024-03-22T05:32:52;5.98;79.49
79026;DHT22;74892;44.760;37.726;2024-03-22T05:33:54;5.97;78.63
79026;DHT22;74892;44.760;37.726;2024-03-22T05:34:55;5.97;79.28
79026;DHT22;74892;44.760;37.726;2024-03-22T05:35:57;5.94;77.56
79026;DHT22;74892;44.760;37.726;2024-03-22T05:37:00;5.93;77.58
79026;DHT22;74892;44.760;37.726;2024-03-22T05:38:02;5.91;78.78
79026;DHT22;74892;44.760;37.726;2024-03-22T05:39:04;5.91;78.22
79026;DHT22;74892;44.760;37.726;2024-03-22T05:40:06;5.91;77.83
79026;DHT22;74892;44.760;37.726;2024-03-22T05:41:08;5.93;79.27
79026;DHT22;74892;44.760;37.726;2024-03-22T05:42:10;5.96;78.57
79026;DHT22;74892;44.760;37.726;2024-03-22T05:43:13;5.99;78.00
79026;DHT22;74892;44.760;37.726;2024-03-22T05:44:15;6.02;78.20
79026;DHT22;74892;44.760;37.726;2024-03-22T05:45:17;6.08;77.67
79026;DHT22;74892;44.760;37.726;2024-03-22T05:46:18;6.10;78.14
79026;DHT22;74892;44.760;37.726;2024-03-22T05:47:20;6.05;78.59
79026;DHT22;74892;44.760;37.726;2024-03-22T05:48:22;6.05;79.86
79026;DHT22;74892;44.760;37.726;2024-03-22T05:49:24;6.05;79.39
79026;DHT22;74892;44.760;37.726;2024-03-22T05:50:29;6.09;79.51
79026;DHT22;74892;44.760;37.726;2024-03-22T05:51:31;6.15;79.82
79026;DHT22;74892;44.760;37.726;2024-03-22T05:52:33;6.12;77.32
79026;DHT22;74892;44.760;37.726;2024-03-22T05:53:35;6.10;76.95
79026;DHT22;74892;44.760;37.726;2024-03-22T05:54:36;6.12;78.48
79026;DHT22;74892;44.760;37.726;2024-03-22T05:55:38;6.11;78.86
79026;DHT22;74892;44.760;37.726;2024-03-22T05:56:40;5.97;77.44
79026;DHT22;74892;44.760;37.726;2024-03-22T05:57:42;5.94;78.50
79026;DHT22;74892;44.760;37.726;2024-03-22T05:58:43;5.87;79.63
79026;DHT22;74892;44.760;37.726;2024-03-22T05:59:45;5.81;80.09
79026;DHT22;74892;44.760;37.726;2024-03-22T06:00:47;5.79;80.96
79026;DHT22;74892;44.760;37.726;2024-03-22T06:01:49;5.78;80.52
79026;DHT22;74892;44.760;37.726;2024-03-22T06:02:51;5.72;81.32
79026;DHT22;74892;44.760;37.726;2024-03-22T06:03:53;5.68;82.15
79026;DHT22;74892;44.760;37.726;2024-03-22T06:04:54;5.70;81.87
79026;DHT22;74892;44.760;37.726;2024-03-22T06:05:57;5.67;80.65
79026;DHT22;74892;44.760;37.726;2024-03-22T06:07:01;5.68;80.24
79026;DHT22;74892;44.760;37.726;2024-03-22T06:08:05;5.70;80.24
79026;DHT22;74892;44.760;37.726;2024-03-22T06:09:08;5.68;79.98
79026;DHT22;74892;44.760;37.726;2024-03-22T06:10:12;5.66;80.46
79026;DHT22;74892;44.760;37.726;2024-03-22T06:11:16;5.64;81.23
79026;DHT22;74892;44.760;37.726;2024-03-22T06:12:18;5.66;81.58
79026;DHT22;74892;44.760;37.726;2024-03-22T06:13:20;5.70;81.14
79026;DHT22;74892;44.760;37.726;2024-03-22T06:14:22;5.71;80.41
79026;DHT22;74892;44.760;37.726;2024-03-22T06:15:23;5.74;81.04
79026;DHT22;74892;44.760;37.726;2024-03-22T06:16:25;5.79;81.04
79026;DHT22;74892;44.760;37.726;2024-03-22T06:17:27;5.83;80.79
79026;DHT22;74892;44.760;37.726;2024-03-22T06:18:29;5.92;80.69
79026;DHT22;74892;44.760;37.726;2024-03-22T06:19:30;5.92;80.50
79026;DHT22;74892;44.760;37.726;2024-03-22T06:20:32;5.91;80.36
79026;DHT22;74892;44.760;37.726;2024-03-22T06:21:34;5.87;80.69
79026;DHT22;74892;44.760;37.726;2024-03-22T06:22:35;5.76;79.99
79026;DHT22;74892;44.760;37.726;2024-03-22T06:23:37;5.76;81.40
79026;DHT22;74892;44.760;37.726;2024-03-22T06:24:39;5.81;82.07
79026;DHT22;74892;44.760;37.726;2024-03-22T06:25:41;5.81;81.23
79026;DHT22;74892;44.760;37.726;2024-03-22T06:26:43;5.89;80.32
79026;DHT22;74892;44.760;37.726;2024-03-22T06:27:44;5.93;79.88
79026;DHT22;74892;44.760;37.726;2024-03-22T06:28:46;5.97;79.42
79026;DHT22;74892;44.760;37.726;2024-03-22T06:29:48;6.02;79.99
79026;DHT22;74892;44.760;37.726;2024-03-22T06:30:50;6.08;79.15
79026;DHT22;74892;44.760;37.726;2024-03-22T06:31:51;6.09;79.49